Time;durP1;ratioP1;P1;durP2;ratioP2;P2;SDS_P1;SDS_P2;PMS_P1;PMS_P2;Temp;Humidity;BMP_temperature;BMP_pressure;BME280_temperature;BME280_humidity;BME280_pressure;Samples;Min_cycle;Max_cycle;Signal;HPM_P1;HPM_P2
2022/10/22 00:01:02;;;;;;;;;;;;;;;;;;5071715;28;19921;-87
2022/10/22 00:03:28;;;;;;;;;;;;;;;;;;5055498;28;19950;-86
2022/10/22 00:05:53;;;;;;;;;;;;;;;;;;5070914;28;19952;-86
2022/10/22 00:08:18;;;;;;;;;;;;;;;;;;5079499;28;19925;-84
2022/10/22 00:10:44;;;;;;;;;;;;;;;;;;5080568;28;20144;-81
2022/10/22 00:13:10;;;;;;;;;;;;;;;;;;5082822;28;19930;-85
2022/10/22 00:15:35;;;;;;;;;;;;;;;;;;5083272;28;19916;-84
2022/10/22 00:18:00;;;;;;;;;;;;;;;;;;5077116;28;19940;-85
2022/10/22 00:20:26;;;;;;;;;;;;;;;;;;5076861;28;19912;-86
2022/10/22 00:22:51;;;;;;;;;;;;;;;;;;5072428;28;20105;-85
2022/10/22 00:25:16;;;;;;;;;;;;;;;;;;5078361;28;19923;-85
2022/10/22 00:27:41;;;;;;;;;;;;;;;;;;5075275;28;19921;-85
2022/10/22 00:30:07;;;;;;;;;;;;;;;;;;5080346;28;19988;-84
2022/10/22 00:32:32;;;;;;;;;;;;;;;;;;5083674;28;19912;-83
2022/10/22 00:34:57;;;;;;;;;;;;;;;;;;5078847;28;19916;-80
2022/10/22 00:37:22;;;;;;;;;;;;;;;;;;5082044;28;19983;-84
2022/10/22 00:39:48;;;;;;;;;;;;;;;;;;5082032;28;20204;-81
2022/10/22 00:42:18;;;;;;;;;;;;;;;;;;5096228;28;19913;-85
2022/10/22 00:45:01;;;;;;;;;;;;;;;;;;5073416;28;19921;-79
2022/10/22 00:47:28;;;;;;;;;;;;;;;;;;5072242;28;19943;-83
2022/10/22 00:49:54;;;;;;;;;;;;;;;;;;5073611;28;19912;-84
2022/10/22 00:52:20;;;;;;;;;;;;;;;;;;5072835;28;19924;-85
2022/10/22 00:54:45;;;;;;;;;;;;;;;;;;5077188;28;19952;-82
2022/10/22 00:57:10;;;;;;;;;;;;;;;;;;5081347;28;19935;-85
2022/10/22 00:59:36;;;;;;;;;;;;;;;;;;5064179;28;19967;-83
2022/10/22 01:02:02;;;;;;;;;;;;;;;;;;5082569;28;19915;-83
2022/10/22 01:04:27;;;;;;;;;;;;;;;;;;5076305;28;19913;-84
2022/10/22 01:06:53;;;;;;;;;;;;;;;;;;5073907;28;20074;-84
2022/10/22 01:09:18;;;;;;;;;;;;;;;;;;5091508;28;19912;-84
2022/10/22 01:11:58;;;;;;;;;;;;;;;;;;5077188;28;19912;-83
2022/10/22 01:14:23;;;;;;;;;;;;;;;;;;5078571;28;19915;-84
2022/10/22 01:16:57;;;;;;;;;;;;;;;;;;5061029;28;20175;-85
2022/10/22 01:19:40;;;;;;;;;;;;;;;;;;5078716;28;19931;-83
2022/10/22 01:22:20;;;;;;;;;;;;;;;;;;5079789;28;19948;-86
2022/10/22 01:24:56;;;;;;;;;;;;;;;;;;5081989;28;19927;-83
2022/10/22 01:27:36;;;;;;;;;;;;;;;;;;5078823;28;19913;-86
2022/10/22 01:30:04;;;;;;;;;;;;;;;;;;5076091;28;19912;-86
2022/10/22 01:32:31;;;;;;;;;;;;;;;;;;5072855;28;19966;-84
2022/10/22 01:35:01;;;;;;;;;;;;;;;;;;5076698;28;19920;-85
2022/10/22 01:37:30;;;;;;;;;;;;;;;;;;5075289;28;19920;-79
2022/10/22 01:39:57;;;;;;;;;;;;;;;;;;5078858;28;19923;-84
2022/10/22 01:42:23;;;;;;;;;;;;;;;;;;5078268;28;19920;-86
2022/10/22 01:44:49;;;;;;;;;;;;;;;;;;5095353;28;19951;-85
2022/10/22 01:47:23;;;;;;;;;;;;;;;;;;5062936;28;19912;-85
2022/10/22 01:49:51;;;;;;;;;;;;;;;;;;5063284;28;19916;-86
2022/10/22 01:52:34;;;;;;;;;;;;;;;;;;5084169;28;20014;-85
2022/10/22 01:55:14;;;;;;;;;;;;;;;;;;5081434;28;19912;-85
2022/10/22 01:57:43;;;;;;;;;;;;;;;;;;5077757;28;19927;-83
2022/10/22 02:00:09;;;;;;;;;;;;;;;;;;5080450;28;19912;-82
2022/10/22 02:02:37;;;;;;;;;;;;;;;;;;5063949;28;19920;-83
2022/10/22 02:05:06;;;;;;;;;;;;;;;;;;5055024;28;19920;-80
2022/10/22 02:07:34;;;;;;;;;;;;;;;;;;5073305;28;19959;-82
2022/10/22 02:10:00;;;;;;;;;;;;;;;;;;5076056;28;19913;-84
2022/10/22 02:12:27;;;;;;;;;;;;;;;;;;5074537;28;20057;-82
2022/10/22 02:14:54;;;;;;;;;;;;;;;;;;5078114;28;20226;-80
2022/10/22 02:17:20;;;;;;;;;;;;;;;;;;5058346;28;19913;-80
2022/10/22 02:19:53;;;;;;;;;;;;;;;;;;5078769;28;19939;-81
2022/10/22 02:22:19;;;;;;;;;;;;;;;;;;5078739;28;19920;-79
2022/10/22 02:24:44;;;;;;;;;;;;;;;;;;5083324;28;19931;-84
2022/10/22 02:27:10;;;;;;;;;;;;;;;;;;5087283;28;19949;-80
2022/10/22 02:29:36;;;;;;;;;;;;;;;;;;5079730;28;20330;-82
2022/10/22 02:32:02;;;;;;;;;;;;;;;;;;5058085;28;19912;-80
2022/10/22 02:34:29;;;;;;;;;;;;;;;;;;5074299;28;19962;-82
2022/10/22 02:36:55;;;;;;;;;;;;;;;;;;5090926;28;19912;-84
2022/10/22 02:39:21;;;;;;;;;;;;;;;;;;5074095;28;20355;-84
2022/10/22 02:41:47;;;;;;;;;;;;;;;;;;5078436;28;19919;-87
2022/10/22 02:44:12;;;;;;;;;;;;;;;;;;5077052;28;20197;-84
2022/10/22 02:46:38;;;;;;;;;;;;;;;;;;5079972;28;19912;-84
2022/10/22 02:49:03;;;;;;;;;;;;;;;;;;5073408;28;19912;-81
2022/10/22 02:51:29;;;;;;;;;;;;;;;;;;5080842;28;20149;-85
2022/10/22 02:53:54;;;;;;;;;;;;;;;;;;5075108;28;19912;-86
2022/10/22 02:56:19;;;;;;;;;;;;;;;;;;5071065;28;20205;-85
2022/10/22 02:58:45;;;;;;;;;;;;;;;;;;5080271;28;19913;-84
2022/10/22 03:01:10;;;;;;;;;;;;;;;;;;5062632;28;20589;-86
2022/10/22 03:03:35;;;;;;;;;;;;;;;;;;5076389;28;19975;-86
2022/10/22 03:06:01;;;;;;;;;;;;;;;;;;5076766;28;19916;-83
2022/10/22 03:08:26;;;;;;;;;;;;;;;;;;5078222;28;19913;-85
2022/10/22 03:10:51;;;;;;;;;;;;;;;;;;5080807;28;19912;-85
2022/10/22 03:13:17;;;;;;;;;;;;;;;;;;5076939;28;19984;-84
2022/10/22 03:15:42;;;;;;;;;;;;;;;;;;5074267;28;20031;-81
2022/10/22 03:18:07;;;;;;;;;;;;;;;;;;5077875;28;19930;-87
2022/10/22 03:20:32;;;;;;;;;;;;;;;;;;5076751;28;20403;-85
2022/10/22 03:22:58;;;;;;;;;;;;;;;;;;5086115;28;19933;-87
2022/10/22 03:25:26;;;;;;;;;;;;;;;;;;5079909;28;20425;-86
2022/10/22 03:27:52;;;;;;;;;;;;;;;;;;5069188;28;19912;-86
2022/10/22 03:30:17;;;;;;;;;;;;;;;;;;5074465;28;19920;-88
2022/10/22 03:32:43;;;;;;;;;;;;;;;;;;5051720;28;19919;-87
2022/10/22 03:35:08;;;;;;;;;;;;;;;;;;5077063;28;20151;-87
2022/10/22 03:37:34;;;;;;;;;;;;;;;;;;5054641;28;19919;-87
2022/10/22 03:39:59;;;;;;;;;;;;;;;;;;5077463;28;19916;-88
2022/10/22 03:42:25;;;;;;;;;;;;;;;;;;5077883;28;19919;-87
2022/10/22 03:44:51;;;;;;;;;;;;;;;;;;5060761;28;19920;-87
2022/10/22 03:47:16;;;;;;;;;;;;;;;;;;5078464;28;19951;-87
2022/10/22 03:49:41;;;;;;;;;;;;;;;;;;5079076;28;19920;-86
2022/10/22 03:52:08;;;;;;;;;;;;;;;;;;5080540;28;19908;-87
2022/10/22 03:54:34;;;;;;;;;;;;;;;;;;5052639;28;20117;-86
2022/10/22 03:56:59;;;;;;;;;;;;;;;;;;5074244;28;20204;-87
2022/10/22 03:59:24;;;;;;;;;;;;;;;;;;5079560;28;19920;-86
2022/10/22 04:01:49;;;;;;;;;;;;;;;;;;5081533;28;20168;-86
2022/10/22 04:04:15;;;;;;;;;;;;;;;;;;5077274;28;19973;-85
2022/10/22 04:06:40;;;;;;;;;;;;;;;;;;5077705;28;19924;-86
2022/10/22 04:09:05;;;;;;;;;;;;;;;;;;5081853;28;19958;-86
2022/10/22 04:11:30;;;;;;;;;;;;;;;;;;5079238;28;19979;-85
2022/10/22 04:13:56;;;;;;;;;;;;;;;;;;5059423;28;19947;-82
2022/10/22 04:16:22;;;;;;;;;;;;;;;;;;5062804;28;19927;-80
2022/10/22 04:18:47;;;;;;;;;;;;;;;;;;5060659;28;19948;-85
2022/10/22 04:21:14;;;;;;;;;;;;;;;;;;5064183;28;19913;-86
2022/10/22 04:23:43;;;;;;;;;;;;;;;;;;5083038;28;19913;-86
2022/10/22 04:26:08;;;;;;;;;;;;;;;;;;5077320;28;19951;-83
2022/10/22 04:28:34;;;;;;;;;;;;;;;;;;5083696;28;19913;-85
2022/10/22 04:30:59;;;;;;;;;;;;;;;;;;5054577;28;19920;-82
2022/10/22 04:33:24;;;;;;;;;;;;;;;;;;5077642;28;19919;-81
2022/10/22 04:35:50;;;;;;;;;;;;;;;;;;5074981;28;20193;-84
2022/10/22 04:38:15;;;;;;;;;;;;;;;;;;5061624;28;19924;-85
2022/10/22 04:40:41;;;;;;;;;;;;;;;;;;5062864;28;19916;-84
2022/10/22 04:43:06;;;;;;;;;;;;;;;;;;5079409;28;19959;-85
2022/10/22 04:45:32;;;;;;;;;;;;;;;;;;5063552;28;19916;-86
2022/10/22 04:47:57;;;;;;;;;;;;;;;;;;5086916;28;19919;-85
2022/10/22 04:50:22;;;;;;;;;;;;;;;;;;5082313;28;20171;-87
2022/10/22 04:52:48;;;;;;;;;;;;;;;;;;5089525;28;19920;-87
2022/10/22 04:55:13;;;;;;;;;;;;;;;;;;5077116;28;19928;-82
2022/10/22 04:57:38;;;;;;;;;;;;;;;;;;5060577;28;19925;-84
2022/10/22 05:00:04;;;;;;;;;;;;;;;;;;5058760;28;19917;-81
2022/10/22 05:02:29;;;;;;;;;;;;;;;;;;5065291;28;19976;-84
2022/10/22 05:04:54;;;;;;;;;;;;;;;;;;5067874;28;20102;-84
2022/10/22 05:07:19;;;;;;;;;;;;;;;;;;5078732;28;19916;-82
2022/10/22 05:09:45;;;;;;;;;;;;;;;;;;5079296;28;19917;-84
2022/10/22 05:12:10;;;;;;;;;;;;;;;;;;5080425;28;19944;-84
2022/10/22 05:14:35;;;;;;;;;;;;;;;;;;5080348;28;19908;-85
2022/10/22 05:17:00;;;;;;;;;;;;;;;;;;5082363;28;19956;-81
2022/10/22 05:19:26;;;;;;;;;;;;;;;;;;5080976;28;19913;-84
2022/10/22 05:21:53;;;;;;;;;;;;;;;;;;5081627;28;19912;-86
2022/10/22 05:24:18;;;;;;;;;;;;;;;;;;5081493;28;19920;-85
2022/10/22 05:26:43;;;;;;;;;;;;;;;;;;5076201;28;19979;-86
2022/10/22 05:29:09;;;;;;;;;;;;;;;;;;5072860;28;20216;-84
2022/10/22 05:31:34;;;;;;;;;;;;;;;;;;5075662;28;19920;-85
2022/10/22 05:33:59;;;;;;;;;;;;;;;;;;5076642;28;19918;-87
2022/10/22 05:36:24;;;;;;;;;;;;;;;;;;5073723;28;20192;-84
2022/10/22 05:38:50;;;;;;;;;;;;;;;;;;5079048;28;19958;-80
2022/10/22 05:41:19;;;;;;;;;;;;;;;;;;5079460;28;19932;-85
2022/10/22 05:43:45;;;;;;;;;;;;;;;;;;5076233;28;19923;-84
2022/10/22 05:46:14;;;;;;;;;;;;;;;;;;5080389;28;19983;-86
2022/10/22 05:48:39;;;;;;;;;;;;;;;;;;5063874;28;20213;-84
2022/10/22 05:51:09;;;;;;;;;;;;;;;;;;5085686;28;19920;-81
2022/10/22 05:53:36;;;;;;;;;;;;;;;;;;5076859;28;19940;-85
2022/10/22 05:56:03;;;;;;;;;;;;;;;;;;5079029;28;19925;-84
2022/10/22 05:58:28;;;;;;;;;;;;;;;;;;5078349;28;19916;-85
2022/10/22 06:00:54;;;;;;;;;;;;;;;;;;5078012;28;20207;-85
2022/10/22 06:03:19;;;;;;;;;;;;;;;;;;5064853;28;19923;-85
2022/10/22 06:05:44;;;;;;;;;;;;;;;;;;5058262;28;19912;-82
2022/10/22 06:08:12;;;;;;;;;;;;;;;;;;5058125;28;19924;-85
2022/10/22 06:10:40;;;;;;;;;;;;;;;;;;5066384;28;19917;-85
2022/10/22 06:13:06;;;;;;;;;;;;;;;;;;5059689;28;19934;-84
2022/10/22 06:15:32;;;;;;;;;;;;;;;;;;5071436;28;19923;-83
2022/10/22 06:17:57;;;;;;;;;;;;;;;;;;5078628;28;19948;-85
2022/10/22 06:20:23;;;;;;;;;;;;;;;;;;5076759;28;20260;-85
2022/10/22 06:22:48;;;;;;;;;;;;;;;;;;5074309;28;19923;-85
2022/10/22 06:25:13;;;;;;;;;;;;;;;;;;5067937;28;19912;-83
2022/10/22 06:27:38;;;;;;;;;;;;;;;;;;5081045;28;19912;-83
2022/10/22 06:30:04;;;;;;;;;;;;;;;;;;5082876;28;20142;-85
2022/10/22 06:32:30;;;;;;;;;;;;;;;;;;5053408;28;19917;-79
2022/10/22 06:34:55;;;;;;;;;;;;;;;;;;5074666;28;19919;-80
2022/10/22 06:37:20;;;;;;;;;;;;;;;;;;5056651;28;19913;-81
2022/10/22 06:39:45;;;;;;;;;;;;;;;;;;5093062;28;19947;-84
2022/10/22 06:42:11;;;;;;;;;;;;;;;;;;5060055;28;19950;-83
2022/10/22 06:44:36;;;;;;;;;;;;;;;;;;5058406;28;20275;-84
2022/10/22 06:47:01;;;;;;;;;;;;;;;;;;5079612;28;20101;-85
2022/10/22 06:49:27;;;;;;;;;;;;;;;;;;5078266;28;19954;-84
2022/10/22 06:51:52;;;;;;;;;;;;;;;;;;5062577;28;19916;-82
2022/10/22 06:54:18;;;;;;;;;;;;;;;;;;5079656;28;20028;-84
2022/10/22 06:56:43;;;;;;;;;;;;;;;;;;5069980;28;19916;-83
2022/10/22 06:59:09;;;;;;;;;;;;;;;;;;5079559;28;19958;-79
2022/10/22 07:01:34;;;;;;;;;;;;;;;;;;5079412;28;19955;-79
2022/10/22 07:04:00;;;;;;;;;;;;;;;;;;5062756;28;19991;-82
2022/10/22 07:06:26;;;;;;;;;;;;;;;;;;5074137;28;19949;-79
2022/10/22 07:08:52;;;;;;;;;;;;;;;;;;5069388;28;19951;-79
2022/10/22 07:11:18;;;;;;;;;;;;;;;;;;5070738;28;20197;-83
2022/10/22 07:13:44;;;;;;;;;;;;;;;;;;5055206;28;19912;-84
2022/10/22 07:16:09;;;;;;;;;;;;;;;;;;5078988;28;19958;-82
2022/10/22 07:18:35;;;;;;;;;;;;;;;;;;5059141;28;19917;-84
2022/10/22 07:21:01;;;;;;;;;;;;;;;;;;5077145;28;19988;-84
2022/10/22 07:23:27;;;;;;;;;;;;;;;;;;5079206;28;19966;-81
2022/10/22 07:25:52;;;;;;;;;;;;;;;;;;5079337;28;19912;-83
2022/10/22 07:28:17;;;;;;;;;;;;;;;;;;5080657;28;19916;-83
2022/10/22 07:30:43;;;;;;;;;;;;;;;;;;5073501;28;19912;-83
2022/10/22 07:33:08;;;;;;;;;;;;;;;;;;5075587;28;19916;-83
2022/10/22 07:35:33;;;;;;;;;;;;;;;;;;5081598;28;19943;-83
2022/10/22 07:37:59;;;;;;;;;;;;;;;;;;5077219;28;19961;-82
2022/10/22 07:40:24;;;;;;;;;;;;;;;;;;5075289;28;19925;-83
2022/10/22 07:42:50;;;;;;;;;;;;;;;;;;5078781;28;19917;-83
2022/10/22 07:45:15;;;;;;;;;;;;;;;;;;5082155;28;19920;-84
2022/10/22 07:47:40;;;;;;;;;;;;;;;;;;5063308;28;20235;-81
2022/10/22 07:50:06;;;;;;;;;;;;;;;;;;5083044;28;19916;-83
2022/10/22 07:52:32;;;;;;;;;;;;;;;;;;5081483;28;19923;-83
2022/10/22 07:54:57;;;;;;;;;;;;;;;;;;5069164;28;19913;-83
2022/10/22 07:57:22;;;;;;;;;;;;;;;;;;5070855;28;19959;-82
2022/10/22 07:59:48;;;;;;;;;;;;;;;;;;5070236;28;19975;-81
2022/10/22 08:02:13;;;;;;;;;;;;;;;;;;5072352;28;20010;-80
2022/10/22 08:04:38;;;;;;;;;;;;;;;;;;5074242;28;19912;-81
2022/10/22 08:07:04;;;;;;;;;;;;;;;;;;5070324;28;20006;-82
2022/10/22 08:09:30;;;;;;;;;;;;;;;;;;5053455;28;19912;-82
2022/10/22 08:11:55;;;;;;;;;;;;;;;;;;5074863;28;19990;-80
2022/10/22 08:14:20;;;;;;;;;;;;;;;;;;5079354;28;20204;-80
2022/10/22 08:16:46;;;;;;;;;;;;;;;;;;5083050;28;19935;-80
2022/10/22 08:19:12;;;;;;;;;;;;;;;;;;5063626;28;20223;-81
2022/10/22 08:21:38;;;;;;;;;;;;;;;;;;5083185;28;19967;-84
2022/10/22 08:24:03;;;;;;;;;;;;;;;;;;5081134;28;19921;-82
2022/10/22 08:26:29;;;;;;;;;;;;;;;;;;5074213;28;19996;-83
2022/10/22 08:28:54;;;;;;;;;;;;;;;;;;5078970;28;19928;-82
2022/10/22 08:31:19;;;;;;;;;;;;;;;;;;5075078;28;19912;-83
2022/10/22 08:33:44;;;;;;;;;;;;;;;;;;5079650;28;20107;-83
2022/10/22 08:36:10;;;;;;;;;;;;;;;;;;5081050;28;20310;-82
2022/10/22 08:38:35;;;;;;;;;;;;;;;;;;5063247;28;19978;-82
2022/10/22 08:41:26;;;;;;;;;;;;;;;;;;5058263;28;19916;-82
2022/10/22 08:43:58;;;;;;;;;;;;;;;;;;5060952;28;19913;-82
2022/10/22 08:46:43;;;;;;;;;;;;;;;;;;5080760;28;19916;-82
2022/10/22 08:49:14;;;;;;;;;;;;;;;;;;5073202;28;19912;-82
2022/10/22 08:51:39;;;;;;;;;;;;;;;;;;5076976;28;20249;-81
2022/10/22 08:54:04;;;;;;;;;;;;;;;;;;5068163;28;19919;-82
2022/10/22 08:56:30;;;;;;;;;;;;;;;;;;5097651;28;20020;-82
2022/10/22 08:59:01;;;;;;;;;;;;;;;;;;5081532;28;19920;-82
2022/10/22 09:01:46;;;;;;;;;;;;;;;;;;5064699;28;19923;-81
2022/10/22 09:04:44;;;;;;;;;;;;;;;;;;5067233;28;20104;-81
2022/10/22 09:07:10;;;;;;;;;;;;;;;;;;5040821;28;19912;-84
2022/10/22 09:09:39;;;;;;;;;;;;;;;;;;5075482;28;20121;-83
2022/10/22 09:12:06;;;;;;;;;;;;;;;;;;5072415;28;19966;-82
2022/10/22 09:14:31;;;;;;;;;;;;;;;;;;5059121;28;19913;-83
2022/10/22 09:16:56;;;;;;;;;;;;;;;;;;5075654;28;19912;-83
2022/10/22 09:19:30;;;;;;;;;;;;;;;;;;5089859;28;19917;-82
2022/10/22 09:21:56;;;;;;;;;;;;;;;;;;5073682;28;19916;-83
2022/10/22 09:24:34;;;;;;;;;;;;;;;;;;5094710;28;19930;-82
2022/10/22 09:27:00;;;;;;;;;;;;;;;;;;5067760;28;19969;-82
2022/10/22 09:29:30;;;;;;;;;;;;;;;;;;5064658;28;20147;-89
2022/10/22 09:31:56;;;;;;;;;;;;;;;;;;5076069;28;19916;-85
2022/10/22 09:34:21;;;;;;;;;;;;;;;;;;5053713;28;19943;-84
2022/10/22 09:36:46;;;;;;;;;;;;;;;;;;5078226;28;19952;-84
2022/10/22 09:39:26;;;;;;;;;;;;;;;;;;5079678;28;20128;-85
2022/10/22 09:41:51;;;;;;;;;;;;;;;;;;5072447;28;20341;-83
2022/10/22 09:44:18;;;;;;;;;;;;;;;;;;5065221;28;19913;-83
2022/10/22 09:46:44;;;;;;;;;;;;;;;;;;5080088;28;19912;-85
2022/10/22 09:49:12;;;;;;;;;;;;;;;;;;5075766;28;19912;-82
2022/10/22 09:51:40;;;;;;;;;;;;;;;;;;5074701;28;19995;-81
2022/10/22 09:54:32;;;;;;;;;;;;;;;;;;5055237;28;20248;-81
2022/10/22 09:57:02;;;;;;;;;;;;;;;;;;5061688;28;20038;-82
2022/10/22 09:59:37;;;;;;;;;;;;;;;;;;5077262;28;20255;-82
2022/10/22 10:02:05;;;;;;;;;;;;;;;;;;5075013;28;19916;-81
2022/10/22 10:04:33;;;;;;;;;;;;;;;;;;5081440;28;19979;-81
2022/10/22 10:06:58;;;;;;;;;;;;;;;;;;5054205;28;20023;-81
2022/10/22 10:09:25;;;;;;;;;;;;;;;;;;5073293;28;19924;-80
2022/10/22 10:11:53;;;;;;;;;;;;;;;;;;5080428;28;19969;-79
2022/10/22 10:14:21;;;;;;;;;;;;;;;;;;5075088;28;20196;-81
2022/10/22 10:17:05;;;;;;;;;;;;;;;;;;5075906;28;19919;-81
2022/10/22 10:19:36;;;;;;;;;;;;;;;;;;5073908;28;19935;-80
2022/10/22 10:22:04;;;;;;;;;;;;;;;;;;5073703;28;20241;-80
2022/10/22 10:24:29;;;;;;;;;;;;;;;;;;5073402;28;19925;-81
2022/10/22 10:27:07;;;;;;;;;;;;;;;;;;5089950;28;19988;-81
2022/10/22 10:29:32;;;;;;;;;;;;;;;;;;5089992;28;20244;-81
2022/10/22 10:32:07;;;;;;;;;;;;;;;;;;5071908;28;19919;-81
2022/10/22 10:34:51;;;;;;;;;;;;;;;;;;5071251;28;19970;-81
2022/10/22 10:37:28;;;;;;;;;;;;;;;;;;5075130;28;19944;-81
2022/10/22 10:40:12;;;;;;;;;;;;;;;;;;5075664;28;19979;-81
2022/10/22 10:42:43;;;;;;;;;;;;;;;;;;5072295;28;20189;-80
2022/10/22 10:45:29;;;;;;;;;;;;;;;;;;5055369;28;19982;-81
2022/10/22 10:48:07;;;;;;;;;;;;;;;;;;5077652;28;19920;-81
2022/10/22 10:50:35;;;;;;;;;;;;;;;;;;5055540;28;19912;-81
2022/10/22 10:53:24;;;;;;;;;;;;;;;;;;5080416;28;19912;-80
2022/10/22 10:55:56;;;;;;;;;;;;;;;;;;5073554;28;19985;-80
2022/10/22 10:58:40;;;;;;;;;;;;;;;;;;5076285;28;19920;-80
2022/10/22 11:01:14;;;;;;;;;;;;;;;;;;5076048;28;20188;-81
2022/10/22 11:03:40;;;;;;;;;;;;;;;;;;5082871;28;19990;-81
2022/10/22 11:06:10;;;;;;;;;;;;;;;;;;5086798;28;19920;-81
2022/10/22 11:09:11;;;;;;;;;;;;;;;;;;5071564;28;20187;-81
2022/10/22 11:11:58;;;;;;;;;;;;;;;;;;5023854;28;19920;-80
2022/10/22 11:14:26;;;;;;;;;;;;;;;;;;5075522;28;19919;-81
2022/10/22 11:16:53;;;;;;;;;;;;;;;;;;5081644;28;19931;-82
2022/10/22 11:19:22;;;;;;;;;;;;;;;;;;5062687;28;19913;-83
2022/10/22 11:21:53;;;;;;;;;;;;;;;;;;5082352;28;19919;-81
2022/10/22 11:24:26;;;;;;;;;;;;;;;;;;5082318;28;19913;-82
2022/10/22 11:27:14;;;;;;;;;;;;;;;;;;5083327;28;19956;-81
2022/10/22 11:29:41;;;;;;;;;;;;;;;;;;5071897;28;19912;-81
2022/10/22 11:32:13;;;;;;;;;;;;;;;;;;5077536;28;19912;-81
2022/10/22 11:34:47;;;;;;;;;;;;;;;;;;5062177;28;19925;-81
2022/10/22 11:37:13;;;;;;;;;;;;;;;;;;5070738;28;20557;-80
2022/10/22 11:39:52;;;;;;;;;;;;;;;;;;5080320;28;19924;-82
2022/10/22 11:42:22;;;;;;;;;;;;;;;;;;5065516;28;19955;-82
2022/10/22 11:44:58;;;;;;;;;;;;;;;;;;5080180;28;19959;-79
2022/10/22 11:47:24;;;;;;;;;;;;;;;;;;5095990;28;20200;-79
2022/10/22 11:49:58;;;;;;;;;;;;;;;;;;5081109;28;19920;-80
2022/10/22 11:52:25;;;;;;;;;;;;;;;;;;5065941;28;19919;-80
2022/10/22 11:54:55;;;;;;;;;;;;;;;;;;5089530;28;19916;-80
2022/10/22 11:57:24;;;;;;;;;;;;;;;;;;5077954;28;20204;-79
2022/10/22 11:59:56;;;;;;;;;;;;;;;;;;5081580;28;19916;-79
2022/10/22 12:02:25;;;;;;;;;;;;;;;;;;5095156;28;19952;-79
2022/10/22 12:04:50;;;;;;;;;;;;;;;;;;5098101;28;19929;-79
2022/10/22 12:07:44;;;;;;;;;;;;;;;;;;5077689;28;19925;-79
2022/10/22 12:10:17;;;;;;;;;;;;;;;;;;5062795;28;20124;-79
2022/10/22 12:12:42;;;;;;;;;;;;;;;;;;5076682;28;20081;-79
2022/10/22 12:15:23;;;;;;;;;;;;;;;;;;5081937;28;19923;-80
2022/10/22 12:17:48;;;;;;;;;;;;;;;;;;5089215;28;20123;-80
2022/10/22 12:20:14;;;;;;;;;;;;;;;;;;5064865;28;20204;-80
2022/10/22 12:22:39;;;;;;;;;;;;;;;;;;5077891;28;20260;-79
2022/10/22 12:25:09;;;;;;;;;;;;;;;;;;5081793;28;19921;-80
2022/10/22 12:27:36;;;;;;;;;;;;;;;;;;5063706;28;20147;-80
2022/10/22 12:30:14;;;;;;;;;;;;;;;;;;5089498;28;19917;-80
2022/10/22 12:32:40;;;;;;;;;;;;;;;;;;5075655;28;20128;-80
2022/10/22 12:35:07;;;;;;;;;;;;;;;;;;5081802;28;20003;-81
2022/10/22 12:37:33;;;;;;;;;;;;;;;;;;5074321;28;20304;-79
2022/10/22 12:39:59;;;;;;;;;;;;;;;;;;5081854;28;19961;-80
2022/10/22 12:42:24;;;;;;;;;;;;;;;;;;5080375;28;20247;-80
2022/10/22 12:44:53;;;;;;;;;;;;;;;;;;5085866;28;19980;-80
2022/10/22 12:47:18;;;;;;;;;;;;;;;;;;5082708;28;19927;-80
2022/10/22 12:49:48;;;;;;;;;;;;;;;;;;5079735;28;19916;-80
2022/10/22 12:52:18;;;;;;;;;;;;;;;;;;5082191;28;19916;-80
2022/10/22 12:54:45;;;;;;;;;;;;;;;;;;5082461;28;19966;-80
2022/10/22 12:57:12;;;;;;;;;;;;;;;;;;5080669;28;19924;-80
2022/10/22 12:59:38;;;;;;;;;;;;;;;;;;5066098;28;20426;-80
2022/10/22 13:02:14;;;;;;;;;;;;;;;;;;5079484;28;20223;-79
2022/10/22 13:04:39;;;;;;;;;;;;;;;;;;5069856;28;19932;-79
2022/10/22 13:07:11;;;;;;;;;;;;;;;;;;5068071;28;19966;-79
2022/10/22 13:09:43;;;;;;;;;;;;;;;;;;5067374;28;20394;-79
2022/10/22 13:12:14;;;;;;;;;;;;;;;;;;5070705;28;19987;-79
2022/10/22 13:14:40;;;;;;;;;;;;;;;;;;5068911;28;19921;-80
2022/10/22 13:17:16;;;;;;;;;;;;;;;;;;5070298;28;19931;-80
2022/10/22 13:19:42;;;;;;;;;;;;;;;;;;5070364;28;19917;-79
2022/10/22 13:22:27;;;;;;;;;;;;;;;;;;5058075;28;19932;-80
2022/10/22 13:24:54;;;;;;;;;;;;;;;;;;5069342;28;20025;-80
2022/10/22 13:27:20;;;;;;;;;;;;;;;;;;5066621;28;20539;-80
2022/10/22 13:29:45;;;;;;;;;;;;;;;;;;5058203;28;19932;-79
2022/10/22 13:32:26;;;;;;;;;;;;;;;;;;5070392;28;20198;-80
2022/10/22 13:34:51;;;;;;;;;;;;;;;;;;5070920;28;19916;-79
2022/10/22 13:37:16;;;;;;;;;;;;;;;;;;5073924;28;19987;-79
2022/10/22 13:39:42;;;;;;;;;;;;;;;;;;5070159;28;19917;-80
2022/10/22 13:42:10;;;;;;;;;;;;;;;;;;5067442;28;20256;-80
2022/10/22 13:44:35;;;;;;;;;;;;;;;;;;5065998;28;19924;-80
2022/10/22 13:47:01;;;;;;;;;;;;;;;;;;5069628;28;20330;-80
2022/10/22 13:49:26;;;;;;;;;;;;;;;;;;5065011;28;20106;-80
2022/10/22 13:51:52;;;;;;;;;;;;;;;;;;5072682;28;19923;-80
2022/10/22 13:54:19;;;;;;;;;;;;;;;;;;5071091;28;19963;-81
2022/10/22 13:56:45;;;;;;;;;;;;;;;;;;5074098;28;20149;-81
2022/10/22 13:59:10;;;;;;;;;;;;;;;;;;5067993;28;19924;-81
2022/10/22 14:01:36;;;;;;;;;;;;;;;;;;5073129;28;19920;-80
2022/10/22 14:04:02;;;;;;;;;;;;;;;;;;5071195;28;19923;-81
2022/10/22 14:06:32;;;;;;;;;;;;;;;;;;5077940;28;19924;-79
2022/10/22 14:08:58;;;;;;;;;;;;;;;;;;5072044;28;19925;-82
2022/10/22 14:11:26;;;;;;;;;;;;;;;;;;5069284;28;19937;-81
2022/10/22 14:13:51;;;;;;;;;;;;;;;;;;5066431;28;19917;-79
2022/10/22 14:16:21;;;;;;;;;;;;;;;;;;5074581;28;19951;-80
2022/10/22 14:18:47;;;;;;;;;;;;;;;;;;5069212;28;20193;-80
2022/10/22 14:21:13;;;;;;;;;;;;;;;;;;5070499;28;19951;-80
2022/10/22 14:23:39;;;;;;;;;;;;;;;;;;5068075;28;20003;-80
2022/10/22 14:26:06;;;;;;;;;;;;;;;;;;5063556;28;20019;-79
2022/10/22 14:28:32;;;;;;;;;;;;;;;;;;5071018;28;19995;-80
2022/10/22 14:30:57;;;;;;;;;;;;;;;;;;5071218;28;19917;-78
2022/10/22 14:33:24;;;;;;;;;;;;;;;;;;5049009;28;19919;-81
2022/10/22 14:35:49;;;;;;;;;;;;;;;;;;5065008;28;20203;-80
2022/10/22 14:38:15;;;;;;;;;;;;;;;;;;5064725;28;19925;-79
2022/10/22 14:40:41;;;;;;;;;;;;;;;;;;5061248;28;19939;-80
2022/10/22 14:43:11;;;;;;;;;;;;;;;;;;5062433;28;19928;-81
2022/10/22 14:45:36;;;;;;;;;;;;;;;;;;5062976;28;20238;-80
2022/10/22 14:48:02;;;;;;;;;;;;;;;;;;5063473;28;19916;-80
2022/10/22 14:50:27;;;;;;;;;;;;;;;;;;5081516;28;19924;-79
2022/10/22 14:52:52;;;;;;;;;;;;;;;;;;5067286;28;19912;-80
2022/10/22 14:55:18;;;;;;;;;;;;;;;;;;5064266;28;20117;-78
2022/10/22 14:57:44;;;;;;;;;;;;;;;;;;5071068;28;19931;-77
2022/10/22 15:00:14;;;;;;;;;;;;;;;;;;5077262;28;19925;-79
2022/10/22 15:02:39;;;;;;;;;;;;;;;;;;5081426;28;20282;-81
2022/10/22 15:05:05;;;;;;;;;;;;;;;;;;5075546;28;19921;-79
2022/10/22 15:07:30;;;;;;;;;;;;;;;;;;5057935;28;19917;-79
2022/10/22 15:09:55;;;;;;;;;;;;;;;;;;5076523;28;19955;-80
2022/10/22 15:12:21;;;;;;;;;;;;;;;;;;5077726;28;20252;-79
2022/10/22 15:14:46;;;;;;;;;;;;;;;;;;5077822;28;19939;-80
2022/10/22 15:17:12;;;;;;;;;;;;;;;;;;5077306;28;20003;-80
2022/10/22 15:19:37;;;;;;;;;;;;;;;;;;5073737;28;19924;-79
2022/10/22 15:22:03;;;;;;;;;;;;;;;;;;5086131;28;19928;-77
2022/10/22 15:24:28;;;;;;;;;;;;;;;;;;5074759;28;19920;-78
2022/10/22 15:26:54;;;;;;;;;;;;;;;;;;5070677;28;19920;-78
2022/10/22 15:29:19;;;;;;;;;;;;;;;;;;5075634;28;19913;-79
2022/10/22 15:31:45;;;;;;;;;;;;;;;;;;5068467;28;20196;-76
2022/10/22 15:34:10;;;;;;;;;;;;;;;;;;5086135;28;19951;-79
2022/10/22 15:36:38;;;;;;;;;;;;;;;;;;5077112;28;19927;-78
2022/10/22 15:39:09;;;;;;;;;;;;;;;;;;5076896;28;19974;-78
2022/10/22 15:41:35;;;;;;;;;;;;;;;;;;5072962;28;20212;-80
2022/10/22 15:44:00;;;;;;;;;;;;;;;;;;5074797;28;19912;-79
2022/10/22 15:46:27;;;;;;;;;;;;;;;;;;5073798;28;19944;-80
2022/10/22 15:48:53;;;;;;;;;;;;;;;;;;5075507;28;20168;-79
2022/10/22 15:51:18;;;;;;;;;;;;;;;;;;5076291;28;19925;-79
2022/10/22 15:53:54;;;;;;;;;;;;;;;;;;5062127;28;20131;-79
2022/10/22 15:56:20;;;;;;;;;;;;;;;;;;5059528;28;19943;-78
2022/10/22 15:58:45;;;;;;;;;;;;;;;;;;5088046;28;19919;-78
2022/10/22 16:01:11;;;;;;;;;;;;;;;;;;5072166;28;19912;-79
2022/10/22 16:03:37;;;;;;;;;;;;;;;;;;5077294;28;19920;-79
2022/10/22 16:06:03;;;;;;;;;;;;;;;;;;5083122;28;19920;-79
2022/10/22 16:08:28;;;;;;;;;;;;;;;;;;5065845;28;20143;-79
2022/10/22 16:10:53;;;;;;;;;;;;;;;;;;5077786;28;19912;-79
2022/10/22 16:13:20;;;;;;;;;;;;;;;;;;5059370;28;20128;-80
2022/10/22 16:15:45;;;;;;;;;;;;;;;;;;5075886;28;19921;-79
2022/10/22 16:18:11;;;;;;;;;;;;;;;;;;5076237;28;19919;-79
2022/10/22 16:20:40;;;;;;;;;;;;;;;;;;5082241;28;19928;-79
2022/10/22 16:23:05;;;;;;;;;;;;;;;;;;5081988;28;19950;-78
2022/10/22 16:25:36;;;;;;;;;;;;;;;;;;5077808;28;20175;-79
2022/10/22 16:28:01;;;;;;;;;;;;;;;;;;5077895;28;19920;-79
2022/10/22 16:30:26;;;;;;;;;;;;;;;;;;5093941;28;20012;-79
2022/10/22 16:32:52;;;;;;;;;;;;;;;;;;5080928;28;19926;-80
2022/10/22 16:35:18;;;;;;;;;;;;;;;;;;5064162;28;20220;-78
2022/10/22 16:37:43;;;;;;;;;;;;;;;;;;5090088;28;19950;-79
2022/10/22 16:40:09;;;;;;;;;;;;;;;;;;5077291;28;19924;-79
2022/10/22 16:42:34;;;;;;;;;;;;;;;;;;5071091;28;19924;-80
2022/10/22 16:44:59;;;;;;;;;;;;;;;;;;5084469;28;19920;-80
2022/10/22 16:47:25;;;;;;;;;;;;;;;;;;5075698;28;20437;-80
2022/10/22 16:49:50;;;;;;;;;;;;;;;;;;5079296;28;19927;-79